sensor_id;sensor_type;location;lat;lon;timestamp;pressure;altitude;pressure_sealevel;temperature;humidity
7962;BME280;4026;43.652;24.906;2023-01-26T00:02:22;100116.19;;;-0.76;100.00
7962;BME280;4026;43.652;24.906;2023-01-26T00:04:50;100130.44;;;-0.78;100.00
7962;BME280;4026;43.652;24.906;2023-01-26T00:07:17;100119.63;;;-0.86;100.00
7962;BME280;4026;43.652;24.906;2023-01-26T00:09:43;100119.63;;;-0.86;100.00
7962;BME280;4026;43.652;24.906;2023-01-26T00:12:10;100127.94;;;-0.78;100.00
7962;BME280;4026;43.652;24.906;2023-01-26T00:14:37;100129.44;;;-0.61;100.00
7962;BME280;4026;43.652;24.906;2023-01-26T00:17:18;100122.91;;;-0.78;100.00
7962;BME280;4026;43.652;24.906;2023-01-26T00:19:54;100099.50;;;-0.78;100.00
7962;BME280;4026;43.652;24.906;2023-01-26T00:22:22;100107.81;;;-0.75;100.00
7962;BME280;4026;43.652;24.906;2023-01-26T00:24:49;100110.31;;;-0.75;100.00
7962;BME280;4026;43.652;24.906;2023-01-26T00:27:16;100104.50;;;-0.80;100.00
7962;BME280;4026;43.652;24.906;2023-01-26T00:29:44;100092.78;;;-0.79;100.00
7962;BME280;4026;43.652;24.906;2023-01-26T00:32:10;100098.59;;;-0.74;100.00
7962;BME280;4026;43.652;24.906;2023-01-26T00:34:37;100091.13;;;-0.82;100.00
7962;BME280;4026;43.652;24.906;2023-01-26T00:37:06;100088.59;;;-0.79;100.00
7962;BME280;4026;43.652;24.906;2023-01-26T00:39:32;100081.03;;;-0.76;100.00
7962;BME280;4026;43.652;24.906;2023-01-26T00:41:59;100087.72;;;-0.75;100.00
7962;BME280;4026;43.652;24.906;2023-01-26T00:44:35;100081.88;;;-0.75;100.00
7962;BME280;4026;43.652;24.906;2023-01-26T00:47:03;100069.31;;;-0.77;100.00
7962;BME280;4026;43.652;24.906;2023-01-26T00:49:30;100064.31;;;-0.77;100.00
7962;BME280;4026;43.652;24.906;2023-01-26T00:51:57;100064.31;;;-0.77;100.00
7962;BME280;4026;43.652;24.906;2023-01-26T00:54:26;100064.19;;;-0.68;100.00
7962;BME280;4026;43.652;24.906;2023-01-26T00:56:53;100060.09;;;-0.75;100.00
7962;BME280;4026;43.652;24.906;2023-01-26T00:59:21;100064.16;;;-0.64;100.00
7962;BME280;4026;43.652;24.906;2023-01-26T01:01:48;100055.91;;;-0.76;100.00
7962;BME280;4026;43.652;24.906;2023-01-26T01:04:15;100054.19;;;-0.71;100.00
7962;BME280;4026;43.652;24.906;2023-01-26T01:06:42;100044.19;;;-0.74;100.00
7962;BME280;4026;43.652;24.906;2023-01-26T01:09:09;100046.06;;;-0.94;100.00
7962;BME280;4026;43.652;24.906;2023-01-26T01:11:38;100046.09;;;-0.97;100.00
7962;BME280;4026;43.652;24.906;2023-01-26T01:14:07;100032.69;;;-0.93;100.00
7962;BME280;4026;43.652;24.906;2023-01-26T01:16:34;100029.31;;;-0.94;100.00
7962;BME280;4026;43.652;24.906;2023-01-26T01:19:00;100029.34;;;-0.95;100.00
7962;BME280;4026;43.652;24.906;2023-01-26T01:21:27;100035.06;;;-0.82;100.00
7962;BME280;4026;43.652;24.906;2023-01-26T01:23:56;100033.47;;;-0.91;100.00
7962;BME280;4026;43.652;24.906;2023-01-26T01:26:23;100034.25;;;-0.83;100.00
7962;BME280;4026;43.652;24.906;2023-01-26T01:28:53;100049.13;;;-0.66;100.00
7962;BME280;4026;43.652;24.906;2023-01-26T01:31:22;100039.22;;;-0.80;100.00
7962;BME280;4026;43.652;24.906;2023-01-26T01:33:51;100040.09;;;-0.81;100.00
7962;BME280;4026;43.652;24.906;2023-01-26T01:36:18;100042.59;;;-0.81;100.00
7962;BME280;4026;43.652;24.906;2023-01-26T01:38:46;100045.97;;;-0.85;100.00
7962;BME280;4026;43.652;24.906;2023-01-26T01:41:14;100039.19;;;-0.77;100.00
7962;BME280;4026;43.652;24.906;2023-01-26T01:43:41;100030.88;;;-0.82;100.00
7962;BME280;4026;43.652;24.906;2023-01-26T01:46:15;100047.59;;;-0.78;100.00
7962;BME280;4026;43.652;24.906;2023-01-26T01:48:49;100042.50;;;-0.72;100.00
7962;BME280;4026;43.652;24.906;2023-01-26T01:51:23;100043.50;;;-0.88;100.00
7962;BME280;4026;43.652;24.906;2023-01-26T01:53:54;100040.97;;;-0.88;100.00
7962;BME280;4026;43.652;24.906;2023-01-26T01:56:25;100034.97;;;-0.72;100.00
7962;BME280;4026;43.652;24.906;2023-01-26T01:58:57;100030.78;;;-0.70;100.00
7962;BME280;4026;43.652;24.906;2023-01-26T02:01:26;100029.00;;;-0.64;100.00
7962;BME280;4026;43.652;24.906;2023-01-26T02:03:56;100044.00;;;-0.58;100.00
7962;BME280;4026;43.652;24.906;2023-01-26T02:06:28;100042.38;;;-0.62;100.00
7962;BME280;4026;43.652;24.906;2023-01-26T02:08:56;100035.59;;;-0.54;100.00
7962;BME280;4026;43.652;24.906;2023-01-26T02:11:26;100024.00;;;-0.64;100.00
7962;BME280;4026;43.652;24.906;2023-01-26T02:13:55;100007.34;;;-0.72;100.00
7962;BME280;4026;43.652;24.906;2023-01-26T02:16:23;99999.00;;;-0.74;100.00
7962;BME280;4026;43.652;24.906;2023-01-26T02:18:51;99995.66;;;-0.73;100.00
7962;BME280;4026;43.652;24.906;2023-01-26T02:21:21;99988.06;;;-0.70;100.00
7962;BME280;4026;43.652;24.906;2023-01-26T02:23:55;99985.53;;;-0.66;100.00
7962;BME280;4026;43.652;24.906;2023-01-26T02:26:27;99987.09;;;-0.59;100.00
7962;BME280;4026;43.652;24.906;2023-01-26T02:28:54;99976.38;;;-0.72;100.00
7962;BME280;4026;43.652;24.906;2023-01-26T02:31:22;99960.56;;;-0.82;100.00
7962;BME280;4026;43.652;24.906;2023-01-26T02:33:49;99960.69;;;-0.91;100.00
7962;BME280;4026;43.652;24.906;2023-01-26T02:36:19;99958.94;;;-0.83;100.00
7962;BME280;4026;43.652;24.906;2023-01-26T02:38:52;99955.56;;;-0.82;100.00
7962;BME280;4026;43.652;24.906;2023-01-26T02:41:21;99958.00;;;-0.76;100.00
7962;BME280;4026;43.652;24.906;2023-01-26T02:44:09;99958.06;;;-0.82;100.00
7962;BME280;4026;43.652;24.906;2023-01-26T02:46:37;99955.66;;;-0.89;100.00
7962;BME280;4026;43.652;24.906;2023-01-26T02:49:04;99957.19;;;-0.78;100.00
7962;BME280;4026;43.652;24.906;2023-01-26T02:51:48;99957.31;;;-0.87;100.00
7962;BME280;4026;43.652;24.906;2023-01-26T02:54:15;99956.53;;;-0.92;100.00
7962;BME280;4026;43.652;24.906;2023-01-26T02:56:56;99949.88;;;-0.96;100.00
7962;BME280;4026;43.652;24.906;2023-01-26T02:59:24;99933.22;;;-1.02;100.00
7962;BME280;4026;43.652;24.906;2023-01-26T03:01:52;99939.78;;;-0.90;100.00
7962;BME280;4026;43.652;24.906;2023-01-26T03:04:21;99933.91;;;-0.89;100.00
7962;BME280;4026;43.652;24.906;2023-01-26T03:06:47;99937.22;;;-0.87;100.00
7962;BME280;4026;43.652;24.906;2023-01-26T03:09:14;99943.97;;;-0.92;100.00
7962;BME280;4026;43.652;24.906;2023-01-26T03:11:41;99942.28;;;-0.90;100.00
7962;BME280;4026;43.652;24.906;2023-01-26T03:14:08;99933.94;;;-0.92;100.00
7962;BME280;4026;43.652;24.906;2023-01-26T03:16:37;99928.97;;;-0.95;100.00
7962;BME280;4026;43.652;24.906;2023-01-26T03:19:05;99920.38;;;-0.79;100.00
7962;BME280;4026;43.652;24.906;2023-01-26T03:21:49;99918.72;;;-0.80;100.00
7962;BME280;4026;43.652;24.906;2023-01-26T03:24:30;99920.44;;;-0.85;100.00
7962;BME280;4026;43.652;24.906;2023-01-26T03:27:14;99921.28;;;-0.84;100.00
7962;BME280;4026;43.652;24.906;2023-01-26T03:29:54;99922.97;;;-0.83;100.00
7962;BME280;4026;43.652;24.906;2023-01-26T03:32:23;99920.44;;;-0.85;100.00
7962;BME280;4026;43.652;24.906;2023-01-26T03:34:51;99915.53;;;-0.93;100.00
7962;BME280;4026;43.652;24.906;2023-01-26T03:37:18;99905.53;;;-0.97;100.00
7962;BME280;4026;43.652;24.906;2023-01-26T03:39:48;99906.34;;;-0.92;100.00
7962;BME280;4026;43.652;24.906;2023-01-26T03:42:32;99899.88;;;-1.13;100.00
7962;BME280;4026;43.652;24.906;2023-01-26T03:45:16;99890.53;;;-1.00;100.00
7962;BME280;4026;43.652;24.906;2023-01-26T03:48:07;99886.34;;;-1.00;100.00
7962;BME280;4026;43.652;24.906;2023-01-26T03:50:52;99884.69;;;-1.01;100.00
7962;BME280;4026;43.652;24.906;2023-01-26T03:53:36;99878.06;;;-1.08;100.00
7962;BME280;4026;43.652;24.906;2023-01-26T03:56:21;99872.19;;;-1.05;100.00
7962;BME280;4026;43.652;24.906;2023-01-26T03:58:51;99875.59;;;-1.09;100.00
7962;BME280;4026;43.652;24.906;2023-01-26T04:01:18;99867.16;;;-1.04;100.00
7962;BME280;4026;43.652;24.906;2023-01-26T04:03:49;99868.22;;;-1.22;100.00
7962;BME280;4026;43.652;24.906;2023-01-26T04:06:34;99871.41;;;-1.09;100.00
7962;BME280;4026;43.652;24.906;2023-01-26T04:09:20;99867.97;;;-1.05;100.00
7962;BME280;4026;43.652;24.906;2023-01-26T04:11:47;99857.94;;;-1.05;100.00
7962;BME280;4026;43.652;24.906;2023-01-26T04:14:14;99858.97;;;-1.20;100.00
7962;BME280;4026;43.652;24.906;2023-01-26T04:17:00;99859.81;;;-1.21;100.00
7962;BME280;4026;43.652;24.906;2023-01-26T04:19:46;99845.66;;;-1.25;100.00
7962;BME280;4026;43.652;24.906;2023-01-26T04:22:34;99832.22;;;-1.21;100.00
7962;BME280;4026;43.652;24.906;2023-01-26T04:25:06;99833.91;;;-1.23;100.00
7962;BME280;4026;43.652;24.906;2023-01-26T04:27:33;99839.03;;;-1.30;100.00
7962;BME280;4026;43.652;24.906;2023-01-26T04:30:00;99837.25;;;-1.21;100.00
7962;BME280;4026;43.652;24.906;2023-01-26T04:32:28;99837.28;;;-1.24;100.00
7962;BME280;4026;43.652;24.906;2023-01-26T04:34:56;99829.84;;;-1.31;100.00
7962;BME280;4026;43.652;24.906;2023-01-26T04:37:23;99831.41;;;-1.21;100.00
7962;BME280;4026;43.652;24.906;2023-01-26T04:39:50;99826.47;;;-1.27;100.00
7962;BME280;4026;43.652;24.906;2023-01-26T04:42:16;99820.50;;;-1.19;100.00
7962;BME280;4026;43.652;24.906;2023-01-26T04:44:43;99824.00;;;-1.32;100.00
7962;BME280;4026;43.652;24.906;2023-01-26T04:47:10;99827.28;;;-1.27;100.00
7962;BME280;4026;43.652;24.906;2023-01-26T04:49:37;99826.47;;;-1.27;100.00
7962;BME280;4026;43.652;24.906;2023-01-26T04:52:05;99820.66;;;-1.31;100.00
7962;BME280;4026;43.652;24.906;2023-01-26T04:54:32;99821.41;;;-1.26;100.00
7962;BME280;4026;43.652;24.906;2023-01-26T04:56:59;99813.09;;;-1.29;100.00
7962;BME280;4026;43.652;24.906;2023-01-26T04:59:26;99815.66;;;-1.31;100.00
7962;BME280;4026;43.652;24.906;2023-01-26T05:01:53;99811.34;;;-1.21;100.00
7962;BME280;4026;43.652;24.906;2023-01-26T05:04:20;99812.94;;;-1.16;100.00
7962;BME280;4026;43.652;24.906;2023-01-26T05:06:46;99811.38;;;-1.24;100.00
7962;BME280;4026;43.652;24.906;2023-01-26T05:09:15;99806.34;;;-1.26;100.00
7962;BME280;4026;43.652;24.906;2023-01-26T05:11:41;99813.88;;;-1.26;100.00
7962;BME280;4026;43.652;24.906;2023-01-26T05:14:08;99807.09;;;-1.18;100.00
7962;BME280;4026;43.652;24.906;2023-01-26T05:16:35;99807.19;;;-1.24;100.00
7962;BME280;4026;43.652;24.906;2023-01-26T05:19:02;99803.84;;;-1.26;100.00
7962;BME280;4026;43.652;24.906;2023-01-26T05:21:29;99792.00;;;-1.15;100.00
7962;BME280;4026;43.652;24.906;2023-01-26T05:23:56;99789.63;;;-1.24;100.00
7962;BME280;4026;43.652;24.906;2023-01-26T05:26:24;99780.53;;;-1.31;100.00
7962;BME280;4026;43.652;24.906;2023-01-26T05:28:51;99782.00;;;-1.16;100.00
7962;BME280;4026;43.652;24.906;2023-01-26T05:31:17;99778.69;;;-1.20;100.00
7962;BME280;4026;43.652;24.906;2023-01-26T05:33:44;99780.41;;;-1.22;100.00
7962;BME280;4026;43.652;24.906;2023-01-26T05:36:11;99777.06;;;-1.24;100.00
7962;BME280;4026;43.652;24.906;2023-01-26T05:38:38;99776.97;;;-1.16;100.00
7962;BME280;4026;43.652;24.906;2023-01-26T05:41:05;99773.66;;;-1.20;100.00
7962;BME280;4026;43.652;24.906;2023-01-26T05:43:34;99766.13;;;-1.20;100.00
7962;BME280;4026;43.652;24.906;2023-01-26T05:46:01;99771.94;;;-1.15;100.00
7962;BME280;4026;43.652;24.906;2023-01-26T05:48:28;99772.75;;;-1.12;100.00
7962;BME280;4026;43.652;24.906;2023-01-26T05:50:55;99775.25;;;-1.12;100.00
7962;BME280;4026;43.652;24.906;2023-01-26T05:53:23;99774.41;;;-1.11;100.00
7962;BME280;4026;43.652;24.906;2023-01-26T05:55:49;99771.16;;;-1.18;100.00
7962;BME280;4026;43.652;24.906;2023-01-26T05:58:16;99767.84;;;-1.22;100.00
7962;BME280;4026;43.652;24.906;2023-01-26T06:00:45;99760.28;;;-1.19;100.00
7962;BME280;4026;43.652;24.906;2023-01-26T06:03:12;99752.75;;;-1.19;100.00
7962;BME280;4026;43.652;24.906;2023-01-26T06:05:39;99748.66;;;-1.26;100.00
7962;BME280;4026;43.652;24.906;2023-01-26T06:08:06;99752.00;;;-1.24;100.00
7962;BME280;4026;43.652;24.906;2023-01-26T06:10:33;99743.50;;;-1.17;100.00
7962;BME280;4026;43.652;24.906;2023-01-26T06:13:00;99745.09;;;-1.09;100.00
7962;BME280;4026;43.652;24.906;2023-01-26T06:15:27;99740.13;;;-1.12;100.00
7962;BME280;4026;43.652;24.906;2023-01-26T06:17:55;99731.78;;;-1.15;100.00
7962;BME280;4026;43.652;24.906;2023-01-26T06:20:22;99740.28;;;-1.23;100.00
7962;BME280;4026;43.652;24.906;2023-01-26T06:22:49;99736.91;;;-1.21;100.00
7962;BME280;4026;43.652;24.906;2023-01-26T06:25:15;99731.88;;;-1.21;100.00
7962;BME280;4026;43.652;24.906;2023-01-26T06:27:42;99733.38;;;-1.07;100.00
7962;BME280;4026;43.652;24.906;2023-01-26T06:30:10;99730.81;;;-1.06;100.00
7962;BME280;4026;43.652;24.906;2023-01-26T06:32:37;99735.13;;;-1.12;100.00
7962;BME280;4026;43.652;24.906;2023-01-26T06:35:07;99730.09;;;-1.12;100.00
7962;BME280;4026;43.652;24.906;2023-01-26T06:37:34;99741.00;;;-1.15;100.00
7962;BME280;4026;43.652;24.906;2023-01-26T06:40:01;99743.41;;;-1.07;100.00
7962;BME280;4026;43.652;24.906;2023-01-26T06:42:28;99733.31;;;-1.04;100.00
7962;BME280;4026;43.652;24.906;2023-01-26T06:44:55;99734.97;;;-1.03;100.00
7962;BME280;4026;43.652;24.906;2023-01-26T06:47:23;99726.63;;;-1.05;100.00
7962;BME280;4026;43.652;24.906;2023-01-26T06:49:50;99733.31;;;-1.04;100.00
7962;BME280;4026;43.652;24.906;2023-01-26T06:52:30;99733.44;;;-1.14;100.00
7962;BME280;4026;43.652;24.906;2023-01-26T06:54:58;99731.56;;;-0.99;100.00
7962;BME280;4026;43.652;24.906;2023-01-26T06:57:26;99734.16;;;-1.04;100.00
7962;BME280;4026;43.652;24.906;2023-01-26T06:59:52;99732.47;;;-1.03;100.00
7962;BME280;4026;43.652;24.906;2023-01-26T07:02:21;99731.50;;;-0.96;100.00
7962;BME280;4026;43.652;24.906;2023-01-26T07:04:49;99728.16;;;-0.95;100.00
7962;BME280;4026;43.652;24.906;2023-01-26T07:07:16;99732.31;;;-0.94;100.00
7962;BME280;4026;43.652;24.906;2023-01-26T07:09:44;99729.81;;;-0.94;100.00
7962;BME280;4026;43.652;24.906;2023-01-26T07:12:11;99739.16;;;-1.04;100.00
7962;BME280;4026;43.652;24.906;2023-01-26T07:14:38;99738.34;;;-1.04;100.00
7962;BME280;4026;43.652;24.906;2023-01-26T07:17:05;99727.28;;;-0.93;100.00
7962;BME280;4026;43.652;24.906;2023-01-26T07:19:32;99726.47;;;-0.93;100.00
7962;BME280;4026;43.652;24.906;2023-01-26T07:21:58;99718.94;;;-0.93;100.00
7962;BME280;4026;43.652;24.906;2023-01-26T07:24:26;99720.69;;;-0.98;100.00
7962;BME280;4026;43.652;24.906;2023-01-26T07:26:54;99719.88;;;-1.00;100.00
7962;BME280;4026;43.652;24.906;2023-01-26T07:29:21;99718.13;;;-0.95;100.00
7962;BME280;4026;43.652;24.906;2023-01-26T07:31:48;99712.03;;;-0.82;100.00
7962;BME280;4026;43.652;24.906;2023-01-26T07:34:15;99719.78;;;-0.94;100.00
7962;BME280;4026;43.652;24.906;2023-01-26T07:36:42;99706.41;;;-0.93;100.00
7962;BME280;4026;43.652;24.906;2023-01-26T07:39:09;99712.34;;;-0.99;100.00
7962;BME280;4026;43.652;24.906;2023-01-26T07:41:36;99704.75;;;-0.97;100.00
7962;BME280;4026;43.652;24.906;2023-01-26T07:44:08;99708.09;;;-0.95;100.00
7962;BME280;4026;43.652;24.906;2023-01-26T07:46:35;99697.91;;;-0.86;100.00
7962;BME280;4026;43.652;24.906;2023-01-26T07:49:02;99694.47;;;-0.82;100.00
7962;BME280;4026;43.652;24.906;2023-01-26T07:51:29;99690.44;;;-0.91;100.00
7962;BME280;4026;43.652;24.906;2023-01-26T07:53:55;99683.75;;;-0.92;100.00
7962;BME280;4026;43.652;24.906;2023-01-26T07:56:23;99677.81;;;-0.86;100.00
7962;BME280;4026;43.652;24.906;2023-01-26T07:58:50;99676.16;;;-0.87;100.00
7962;BME280;4026;43.652;24.906;2023-01-26T08:01:19;99666.97;;;-0.86;100.00
7962;BME280;4026;43.652;24.906;2023-01-26T08:03:48;99677.78;;;-0.83;100.00
7962;BME280;4026;43.652;24.906;2023-01-26T08:06:16;99666.91;;;-0.85;100.00
7962;BME280;4026;43.652;24.906;2023-01-26T08:08:44;99661.16;;;-0.90;100.00
7962;BME280;4026;43.652;24.906;2023-01-26T08:11:16;99656.00;;;-0.81;100.00
7962;BME280;4026;43.652;24.906;2023-01-26T08:13:44;99659.22;;;-0.76;100.00
7962;BME280;4026;43.652;24.906;2023-01-26T08:16:11;99653.44;;;-0.79;100.00
7962;BME280;4026;43.652;24.906;2023-01-26T08:18:40;99649.34;;;-0.85;100.00
7962;BME280;4026;43.652;24.906;2023-01-26T08:21:08;99652.72;;;-0.86;100.00
7962;BME280;4026;43.652;24.906;2023-01-26T08:23:35;99649.28;;;-0.82;100.00
7962;BME280;4026;43.652;24.906;2023-01-26T08:26:02;99640.88;;;-0.78;100.00
7962;BME280;4026;43.652;24.906;2023-01-26T08:28:29;99633.28;;;-0.75;100.00
7962;BME280;4026;43.652;24.906;2023-01-26T08:30:58;99649.88;;;-0.68;100.00
7962;BME280;4026;43.652;24.906;2023-01-26T08:33:29;99641.41;;;-0.62;100.00
7962;BME280;4026;43.652;24.906;2023-01-26T08:36:01;99649.09;;;-0.70;100.00
7962;BME280;4026;43.652;24.906;2023-01-26T08:38:29;99641.47;;;-0.63;100.00
7962;BME280;4026;43.652;24.906;2023-01-26T08:40:56;99637.44;;;-0.74;100.00
7962;BME280;4026;43.652;24.906;2023-01-26T08:43:23;99634.03;;;-0.70;100.00
7962;BME280;4026;43.652;24.906;2023-01-26T08:45:50;99634.03;;;-0.70;100.00
7962;BME280;4026;43.652;24.906;2023-01-26T08:48:17;99630.00;;;-0.78;100.00
7962;BME280;4026;43.652;24.906;2023-01-26T08:50:44;99623.06;;;-0.65;100.00
7962;BME280;4026;43.652;24.906;2023-01-26T08:53:12;99623.88;;;-0.63;100.00
7962;BME280;4026;43.652;24.906;2023-01-26T08:55:39;99635.75;;;-0.72;100.00
7962;BME280;4026;43.652;24.906;2023-01-26T08:58:06;99632.19;;;-0.61;100.00
7962;BME280;4026;43.652;24.906;2023-01-26T09:00:33;99636.56;;;-0.71;100.00
7962;BME280;4026;43.652;24.906;2023-01-26T09:03:00;99632.25;;;-0.64;100.00
7962;BME280;4026;43.652;24.906;2023-01-26T09:05:32;99630.44;;;-0.56;100.00
7962;BME280;4026;43.652;24.906;2023-01-26T09:07:59;99638.94;;;-0.63;100.00
7962;BME280;4026;43.652;24.906;2023-01-26T09:10:28;99635.63;;;-0.65;100.00
7962;BME280;4026;43.652;24.906;2023-01-26T09:12:56;99630.63;;;-0.67;100.00
7962;BME280;4026;43.652;24.906;2023-01-26T09:15:23;99626.47;;;-0.68;100.00
7962;BME280;4026;43.652;24.906;2023-01-26T09:17:50;99624.66;;;-0.60;100.00
7962;BME280;4026;43.652;24.906;2023-01-26T09:20:19;99615.59;;;-0.69;100.00
7962;BME280;4026;43.652;24.906;2023-01-26T09:22:46;99616.41;;;-0.68;100.00
7962;BME280;4026;43.652;24.906;2023-01-26T09:25:13;99602.69;;;-0.50;100.00
7962;BME280;4026;43.652;24.906;2023-01-26T09:27:41;99601.97;;;-0.55;100.00
7962;BME280;4026;43.652;24.906;2023-01-26T09:30:09;99596.94;;;-0.55;100.00
7962;BME280;4026;43.652;24.906;2023-01-26T09:32:39;99586.94;;;-0.58;100.00
7962;BME280;4026;43.652;24.906;2023-01-26T09:35:08;99585.06;;;-0.47;100.00
7962;BME280;4026;43.652;24.906;2023-01-26T09:37:36;99585.00;;;-0.44;100.00
7962;BME280;4026;43.652;24.906;2023-01-26T09:40:04;99574.94;;;-0.44;100.00
7962;BME280;4026;43.652;24.906;2023-01-26T09:42:38;99564.91;;;-0.44;100.00
7962;BME280;4026;43.652;24.906;2023-01-26T09:45:21;99556.78;;;-0.55;100.00
7962;BME280;4026;43.652;24.906;2023-01-26T09:48:02;99561.50;;;-0.40;100.00
7962;BME280;4026;43.652;24.906;2023-01-26T09:50:37;99560.69;;;-0.42;100.00
7962;BME280;4026;43.652;24.906;2023-01-26T09:53:13;99549.69;;;-0.38;100.00
7962;BME280;4026;43.652;24.906;2023-01-26T09:55:41;99557.22;;;-0.36;100.00
7962;BME280;4026;43.652;24.906;2023-01-26T09:58:13;99544.88;;;-0.47;100.00
7962;BME280;4026;43.652;24.906;2023-01-26T10:00:46;99551.25;;;-0.31;100.00
7962;BME280;4026;43.652;24.906;2023-01-26T10:03:19;99554.56;;;-0.29;100.00
7962;BME280;4026;43.652;24.906;2023-01-26T10:05:52;99546.34;;;-0.37;100.00
7962;BME280;4026;43.652;24.906;2023-01-26T10:08:21;99548.00;;;-0.36;100.00
7962;BME280;4026;43.652;24.906;2023-01-26T10:10:52;99539.63;;;-0.35;100.00
7962;BME280;4026;43.652;24.906;2023-01-26T10:13:20;99530.41;;;-0.36;100.00
7962;BME280;4026;43.652;24.906;2023-01-26T10:15:51;99536.09;;;-0.28;100.00
7962;BME280;4026;43.652;24.906;2023-01-26T10:18:23;99533.56;;;-0.26;100.00
7962;BME280;4026;43.652;24.906;2023-01-26T10:20:53;99531.09;;;-0.28;100.00
7962;BME280;4026;43.652;24.906;2023-01-26T10:23:23;99525.25;;;-0.30;100.00
7962;BME280;4026;43.652;24.906;2023-01-26T10:25:52;99508.63;;;-0.35;100.00
7962;BME280;4026;43.652;24.906;2023-01-26T10:28:25;99504.19;;;-0.22;100.00
7962;BME280;4026;43.652;24.906;2023-01-26T10:30:54;99498.34;;;-0.25;100.00
7962;BME280;4026;43.652;24.906;2023-01-26T10:33:24;99478.34;;;-0.29;100.00
7962;BME280;4026;43.652;24.906;2023-01-26T10:35:52;99480.50;;;-0.12;100.00
7962;BME280;4026;43.652;24.906;2023-01-26T10:38:26;99476.25;;;-0.10;100.00
7962;BME280;4026;43.652;24.906;2023-01-26T10:40:53;99474.44;;;-0.04;100.00
7962;BME280;4026;43.652;24.906;2023-01-26T10:43:20;99461.84;;;-0.04;100.00
7962;BME280;4026;43.652;24.906;2023-01-26T10:45:47;99470.22;;;-0.03;100.00
7962;BME280;4026;43.652;24.906;2023-01-26T10:48:18;99460.13;;;0.00;100.00
7962;BME280;4026;43.652;24.906;2023-01-26T10:50:46;99448.38;;;0.01;100.00
7962;BME280;4026;43.652;24.906;2023-01-26T10:53:15;99440.03;;;0.00;100.00
7962;BME280;4026;43.652;24.906;2023-01-26T10:55:58;99437.06;;;0.17;100.00
7962;BME280;4026;43.652;24.906;2023-01-26T10:58:50;99426.28;;;0.13;100.00
7962;BME280;4026;43.652;24.906;2023-01-26T11:01:18;99418.84;;;0.09;100.00
7962;BME280;4026;43.652;24.906;2023-01-26T11:04:03;99413.06;;;0.05;100.00
7962;BME280;4026;43.652;24.906;2023-01-26T11:06:32;99407.97;;;0.08;100.00
7962;BME280;4026;43.652;24.906;2023-01-26T11:09:10;99417.03;;;0.14;100.00
7962;BME280;4026;43.652;24.906;2023-01-26T11:11:54;99416.28;;;0.10;100.00
7962;BME280;4026;43.652;24.906;2023-01-26T11:14:20;99422.88;;;0.14;100.00
7962;BME280;4026;43.652;24.906;2023-01-26T11:16:52;99412.97;;;0.08;100.00
7962;BME280;4026;43.652;24.906;2023-01-26T11:19:36;99403.75;;;0.09;100.00
7962;BME280;4026;43.652;24.906;2023-01-26T11:22:09;99406.47;;;0.01;100.00
7962;BME280;4026;43.652;24.906;2023-01-26T11:24:41;99394.38;;;0.15;100.00
7962;BME280;4026;43.652;24.906;2023-01-26T11:27:31;99387.56;;;0.20;100.00
7962;BME280;4026;43.652;24.906;2023-01-26T11:32:59;99389.22;;;0.21;100.00
7962;BME280;4026;43.652;24.906;2023-01-26T11:35:38;99378.16;;;0.27;100.00
7962;BME280;4026;43.652;24.906;2023-01-26T11:38:41;99379.28;;;0.48;100.00
7962;BME280;4026;43.652;24.906;2023-01-26T11:41:23;99378.75;;;0.37;100.00
7962;BME280;4026;43.652;24.906;2023-01-26T11:44:11;99367.75;;;0.41;100.00
7962;BME280;4026;43.652;24.906;2023-01-26T11:47:00;99375.06;;;0.50;100.00
7962;BME280;4026;43.652;24.906;2023-01-26T11:49:46;99366.97;;;0.39;100.00
7962;BME280;4026;43.652;24.906;2023-01-26T11:52:30;99358.28;;;0.49;100.00
7962;BME280;4026;43.652;24.906;2023-01-26T11:55:15;99348.56;;;0.37;100.00
7962;BME280;4026;43.652;24.906;2023-01-26T11:57:54;99347.31;;;0.53;100.00
7962;BME280;4026;43.652;24.906;2023-01-26T12:00:35;99344.97;;;0.47;100.00
7962;BME280;4026;43.652;24.906;2023-01-26T12:03:13;99331.41;;;0.51;100.00
7962;BME280;4026;43.652;24.906;2023-01-26T12:05:45;99332.38;;;0.47;100.00
7962;BME280;4026;43.652;24.906;2023-01-26T12:08:21;99326.13;;;0.60;100.00
7962;BME280;4026;43.652;24.906;2023-01-26T12:10:58;99327.38;;;0.45;100.00
7962;BME280;4026;43.652;24.906;2023-01-26T12:13:51;99319.19;;;0.39;100.00
7962;BME280;4026;43.652;24.906;2023-01-26T12:16:32;99316.50;;;0.45;100.00
7962;BME280;4026;43.652;24.906;2023-01-26T12:19:11;99303.03;;;0.46;100.00
7962;BME280;4026;43.652;24.906;2023-01-26T12:21:43;99289.63;;;0.47;100.00
7962;BME280;4026;43.652;24.906;2023-01-26T12:24:16;99295.56;;;0.44;100.00
7962;BME280;4026;43.652;24.906;2023-01-26T12:26:48;99287.94;;;0.46;100.00
7962;BME280;4026;43.652;24.906;2023-01-26T12:29:21;99300.53;;;0.46;100.00
7962;BME280;4026;43.652;24.906;2023-01-26T12:31:54;99302.41;;;0.39;100.00
7962;BME280;4026;43.652;24.906;2023-01-26T12:34:26;99298.78;;;0.50;100.00
7962;BME280;4026;43.652;24.906;2023-01-26T12:37:06;99290.47;;;0.46;100.00
7962;BME280;4026;43.652;24.906;2023-01-26T12:39:43;99294.56;;;0.50;100.00
7962;BME280;4026;43.652;24.906;2023-01-26T12:42:19;99292.44;;;0.35;100.00
7962;BME280;4026;43.652;24.906;2023-01-26T12:44:53;99286.47;;;0.39;100.00
7962;BME280;4026;43.652;24.906;2023-01-26T12:47:25;99283.72;;;0.48;100.00
7962;BME280;4026;43.652;24.906;2023-01-26T12:49:57;99287.84;;;0.49;100.00
7962;BME280;4026;43.652;24.906;2023-01-26T12:52:32;99280.53;;;0.41;100.00
7962;BME280;4026;43.652;24.906;2023-01-26T12:55:10;99272.00;;;0.47;100.00
7962;BME280;4026;43.652;24.906;2023-01-26T12:57:46;99271.50;;;0.34;100.00
7962;BME280;4026;43.652;24.906;2023-01-26T13:00:18;99269.97;;;0.29;100.00
7962;BME280;4026;43.652;24.906;2023-01-26T13:02:49;99276.41;;;0.39;100.00
7962;BME280;4026;43.652;24.906;2023-01-26T13:05:26;99277.50;;;0.30;100.00
7962;BME280;4026;43.652;24.906;2023-01-26T13:07:53;99268.16;;;0.34;100.00
7962;BME280;4026;43.652;24.906;2023-01-26T13:10:47;99268.44;;;0.25;100.00
7962;BME280;4026;43.652;24.906;2023-01-26T13:13:29;99263.31;;;0.28;100.00
7962;BME280;4026;43.652;24.906;2023-01-26T13:16:30;99268.97;;;0.36;100.00
7962;BME280;4026;43.652;24.906;2023-01-26T13:18:58;99269.81;;;0.35;100.00
7962;BME280;4026;43.652;24.906;2023-01-26T13:21:26;99264.94;;;0.29;100.00
7962;BME280;4026;43.652;24.906;2023-01-26T13:23:53;99261.91;;;0.17;100.00